Terminal Aerodrome Forecast
Issued by NWS Central Illinois

Home | Current Version | Previous Version | Text Only | Print | Product List | Glossary On
Versions: 1 2 3 4 5 6 7 8 9 10 11 12 13 14 15 16 17 18 19 20 21
000
FTUS43 KILX 021100
TAFPIA
TAF
KPIA 021138Z 0212/0312 24004KT P6SM VCSH BKN008 BKN040
      TEMPO 0213/0214 SCT008
     FM021400 27006KT P6SM SCT020 BKN250
     FM030000 VRB03KT P6SM SCT250
     FM030900 VRB03KT 2SM BR SCT006=

USA.gov is the U.S. government's official web portal to all federal, state and local government web resources and services.